sensor_id;sensor_type;location;lat;lon;timestamp;P1;durP1;ratioP1;P2;durP2;ratioP2
73733;SDS011;62039;50.000;9.064;2022-12-18T00:02:08;35.53;;;22.77;;
73733;SDS011;62039;50.000;9.064;2022-12-18T00:04:35;37.23;;;21.97;;
73733;SDS011;62039;50.000;9.064;2022-12-18T00:07:01;36.27;;;23.50;;
73733;SDS011;62039;50.000;9.064;2022-12-18T00:09:28;38.80;;;24.03;;
73733;SDS011;62039;50.000;9.064;2022-12-18T00:12:05;41.83;;;24.77;;
73733;SDS011;62039;50.000;9.064;2022-12-18T00:14:41;39.20;;;23.13;;
73733;SDS011;62039;50.000;9.064;2022-12-18T00:17:08;35.87;;;21.73;;
73733;SDS011;62039;50.000;9.064;2022-12-18T00:19:35;30.73;;;19.27;;
73733;SDS011;62039;50.000;9.064;2022-12-18T00:22:01;29.90;;;17.70;;
73733;SDS011;62039;50.000;9.064;2022-12-18T00:24:28;29.10;;;17.00;;
73733;SDS011;62039;50.000;9.064;2022-12-18T00:26:55;26.73;;;17.60;;
73733;SDS011;62039;50.000;9.064;2022-12-18T00:29:21;28.20;;;17.10;;
73733;SDS011;62039;50.000;9.064;2022-12-18T00:31:48;29.37;;;18.47;;
73733;SDS011;62039;50.000;9.064;2022-12-18T00:34:16;26.20;;;17.33;;
73733;SDS011;62039;50.000;9.064;2022-12-18T00:36:42;26.43;;;16.13;;
73733;SDS011;62039;50.000;9.064;2022-12-18T00:39:09;27.83;;;17.87;;
73733;SDS011;62039;50.000;9.064;2022-12-18T00:41:36;24.30;;;15.77;;
73733;SDS011;62039;50.000;9.064;2022-12-18T00:44:03;26.60;;;17.87;;
73733;SDS011;62039;50.000;9.064;2022-12-18T00:46:31;26.37;;;17.10;;
73733;SDS011;62039;50.000;9.064;2022-12-18T00:48:58;30.47;;;18.90;;
73733;SDS011;62039;50.000;9.064;2022-12-18T00:51:25;27.27;;;18.50;;
73733;SDS011;62039;50.000;9.064;2022-12-18T00:53:53;28.97;;;18.43;;
73733;SDS011;62039;50.000;9.064;2022-12-18T00:56:19;28.07;;;17.97;;
73733;SDS011;62039;50.000;9.064;2022-12-18T00:58:46;28.40;;;16.80;;
73733;SDS011;62039;50.000;9.064;2022-12-18T01:01:12;27.60;;;16.80;;
73733;SDS011;62039;50.000;9.064;2022-12-18T01:03:40;26.70;;;15.87;;
73733;SDS011;62039;50.000;9.064;2022-12-18T01:06:07;26.90;;;17.17;;
73733;SDS011;62039;50.000;9.064;2022-12-18T01:08:36;28.20;;;16.97;;
73733;SDS011;62039;50.000;9.064;2022-12-18T01:11:06;29.67;;;18.27;;
73733;SDS011;62039;50.000;9.064;2022-12-18T01:13:34;30.10;;;18.23;;
73733;SDS011;62039;50.000;9.064;2022-12-18T01:16:01;30.37;;;18.43;;
73733;SDS011;62039;50.000;9.064;2022-12-18T01:18:28;28.03;;;18.67;;
73733;SDS011;62039;50.000;9.064;2022-12-18T01:20:54;27.10;;;16.20;;
73733;SDS011;62039;50.000;9.064;2022-12-18T01:23:21;27.83;;;16.80;;
73733;SDS011;62039;50.000;9.064;2022-12-18T01:25:49;26.90;;;17.47;;
73733;SDS011;62039;50.000;9.064;2022-12-18T01:28:15;28.93;;;16.70;;
73733;SDS011;62039;50.000;9.064;2022-12-18T01:30:42;27.77;;;16.93;;
73733;SDS011;62039;50.000;9.064;2022-12-18T01:33:08;28.70;;;17.17;;
73733;SDS011;62039;50.000;9.064;2022-12-18T01:35:39;27.77;;;16.17;;
73733;SDS011;62039;50.000;9.064;2022-12-18T01:38:07;30.13;;;17.20;;
73733;SDS011;62039;50.000;9.064;2022-12-18T01:40:34;27.43;;;17.10;;
73733;SDS011;62039;50.000;9.064;2022-12-18T01:43:02;27.67;;;16.80;;
73733;SDS011;62039;50.000;9.064;2022-12-18T01:45:30;27.73;;;16.97;;
73733;SDS011;62039;50.000;9.064;2022-12-18T01:47:59;26.53;;;16.40;;
73733;SDS011;62039;50.000;9.064;2022-12-18T01:50:29;25.37;;;16.13;;
73733;SDS011;62039;50.000;9.064;2022-12-18T01:52:59;24.33;;;15.17;;
73733;SDS011;62039;50.000;9.064;2022-12-18T01:55:30;25.03;;;15.63;;
73733;SDS011;62039;50.000;9.064;2022-12-18T01:58:02;22.87;;;14.90;;
73733;SDS011;62039;50.000;9.064;2022-12-18T02:00:30;23.87;;;15.23;;
73733;SDS011;62039;50.000;9.064;2022-12-18T02:02:57;25.10;;;15.33;;
73733;SDS011;62039;50.000;9.064;2022-12-18T02:05:26;24.17;;;14.47;;
73733;SDS011;62039;50.000;9.064;2022-12-18T02:07:59;24.40;;;15.27;;
73733;SDS011;62039;50.000;9.064;2022-12-18T02:10:33;26.87;;;16.87;;
73733;SDS011;62039;50.000;9.064;2022-12-18T02:13:10;26.43;;;16.27;;
73733;SDS011;62039;50.000;9.064;2022-12-18T02:15:42;26.67;;;15.67;;
73733;SDS011;62039;50.000;9.064;2022-12-18T02:18:18;24.80;;;14.83;;
73733;SDS011;62039;50.000;9.064;2022-12-18T02:20:47;25.03;;;15.13;;
73733;SDS011;62039;50.000;9.064;2022-12-18T02:23:23;26.93;;;15.03;;
73733;SDS011;62039;50.000;9.064;2022-12-18T02:26:01;21.60;;;13.53;;
73733;SDS011;62039;50.000;9.064;2022-12-18T02:28:34;21.60;;;13.57;;
73733;SDS011;62039;50.000;9.064;2022-12-18T02:31:06;22.03;;;13.93;;
73733;SDS011;62039;50.000;9.064;2022-12-18T02:33:37;23.33;;;14.10;;
73733;SDS011;62039;50.000;9.064;2022-12-18T02:36:06;22.30;;;14.67;;
73733;SDS011;62039;50.000;9.064;2022-12-18T02:38:34;22.50;;;13.93;;
73733;SDS011;62039;50.000;9.064;2022-12-18T02:41:02;23.87;;;14.13;;
73733;SDS011;62039;50.000;9.064;2022-12-18T02:43:31;23.57;;;15.10;;
73733;SDS011;62039;50.000;9.064;2022-12-18T02:45:58;24.73;;;15.13;;
73733;SDS011;62039;50.000;9.064;2022-12-18T02:48:28;26.17;;;15.07;;
73733;SDS011;62039;50.000;9.064;2022-12-18T02:50:59;28.07;;;15.50;;
73733;SDS011;62039;50.000;9.064;2022-12-18T02:53:34;26.00;;;16.07;;
73733;SDS011;62039;50.000;9.064;2022-12-18T02:56:07;25.77;;;15.73;;
73733;SDS011;62039;50.000;9.064;2022-12-18T02:58:41;24.00;;;15.37;;
73733;SDS011;62039;50.000;9.064;2022-12-18T03:01:15;25.67;;;16.80;;
73733;SDS011;62039;50.000;9.064;2022-12-18T03:03:46;28.57;;;17.47;;
73733;SDS011;62039;50.000;9.064;2022-12-18T03:06:18;28.37;;;16.47;;
73733;SDS011;62039;50.000;9.064;2022-12-18T03:08:49;25.80;;;16.50;;
73733;SDS011;62039;50.000;9.064;2022-12-18T03:11:21;26.73;;;16.23;;
73733;SDS011;62039;50.000;9.064;2022-12-18T03:13:48;28.60;;;17.53;;
73733;SDS011;62039;50.000;9.064;2022-12-18T03:16:20;27.83;;;17.10;;
73733;SDS011;62039;50.000;9.064;2022-12-18T03:18:51;28.17;;;16.67;;
73733;SDS011;62039;50.000;9.064;2022-12-18T03:21:22;26.97;;;15.47;;
73733;SDS011;62039;50.000;9.064;2022-12-18T03:23:54;24.77;;;15.70;;
73733;SDS011;62039;50.000;9.064;2022-12-18T03:26:24;26.50;;;15.87;;
73733;SDS011;62039;50.000;9.064;2022-12-18T03:28:52;25.13;;;15.97;;
73733;SDS011;62039;50.000;9.064;2022-12-18T03:31:21;21.47;;;14.50;;
73733;SDS011;62039;50.000;9.064;2022-12-18T03:33:51;26.57;;;15.00;;
73733;SDS011;62039;50.000;9.064;2022-12-18T03:36:19;25.03;;;15.23;;
73733;SDS011;62039;50.000;9.064;2022-12-18T03:38:46;24.37;;;15.13;;
73733;SDS011;62039;50.000;9.064;2022-12-18T03:41:15;25.90;;;16.33;;
73733;SDS011;62039;50.000;9.064;2022-12-18T03:43:48;26.87;;;16.10;;
73733;SDS011;62039;50.000;9.064;2022-12-18T03:46:21;24.23;;;15.40;;
73733;SDS011;62039;50.000;9.064;2022-12-18T03:48:55;23.60;;;14.77;;
73733;SDS011;62039;50.000;9.064;2022-12-18T03:51:28;24.00;;;14.50;;
73733;SDS011;62039;50.000;9.064;2022-12-18T03:54:03;25.57;;;15.20;;
73733;SDS011;62039;50.000;9.064;2022-12-18T03:56:33;22.57;;;14.17;;
73733;SDS011;62039;50.000;9.064;2022-12-18T03:59:04;21.53;;;13.70;;
73733;SDS011;62039;50.000;9.064;2022-12-18T04:01:33;22.83;;;14.53;;
73733;SDS011;62039;50.000;9.064;2022-12-18T04:04:02;22.43;;;14.50;;
73733;SDS011;62039;50.000;9.064;2022-12-18T04:06:31;22.30;;;14.13;;
73733;SDS011;62039;50.000;9.064;2022-12-18T04:08:58;20.30;;;13.83;;
73733;SDS011;62039;50.000;9.064;2022-12-18T04:11:25;24.20;;;14.90;;
73733;SDS011;62039;50.000;9.064;2022-12-18T04:13:56;21.80;;;13.87;;
73733;SDS011;62039;50.000;9.064;2022-12-18T04:16:24;25.47;;;14.77;;
73733;SDS011;62039;50.000;9.064;2022-12-18T04:18:52;25.67;;;15.53;;
73733;SDS011;62039;50.000;9.064;2022-12-18T04:21:19;24.13;;;14.47;;
73733;SDS011;62039;50.000;9.064;2022-12-18T04:23:46;24.80;;;15.67;;
73733;SDS011;62039;50.000;9.064;2022-12-18T04:26:12;24.67;;;15.13;;
73733;SDS011;62039;50.000;9.064;2022-12-18T04:28:39;27.30;;;15.80;;
73733;SDS011;62039;50.000;9.064;2022-12-18T04:31:06;25.63;;;15.70;;
73733;SDS011;62039;50.000;9.064;2022-12-18T04:33:34;23.47;;;14.70;;
73733;SDS011;62039;50.000;9.064;2022-12-18T04:36:00;24.83;;;14.97;;
73733;SDS011;62039;50.000;9.064;2022-12-18T04:38:27;25.37;;;15.40;;
73733;SDS011;62039;50.000;9.064;2022-12-18T04:40:53;22.87;;;14.87;;
73733;SDS011;62039;50.000;9.064;2022-12-18T04:43:20;25.13;;;15.53;;
73733;SDS011;62039;50.000;9.064;2022-12-18T04:45:46;24.83;;;15.30;;
73733;SDS011;62039;50.000;9.064;2022-12-18T04:48:13;24.60;;;14.53;;
73733;SDS011;62039;50.000;9.064;2022-12-18T04:50:41;24.63;;;14.63;;
73733;SDS011;62039;50.000;9.064;2022-12-18T04:53:07;25.87;;;14.97;;
73733;SDS011;62039;50.000;9.064;2022-12-18T04:55:35;25.27;;;15.23;;
73733;SDS011;62039;50.000;9.064;2022-12-18T04:58:01;26.97;;;16.43;;
73733;SDS011;62039;50.000;9.064;2022-12-18T05:00:28;26.00;;;17.23;;
73733;SDS011;62039;50.000;9.064;2022-12-18T05:02:54;29.23;;;16.87;;
73733;SDS011;62039;50.000;9.064;2022-12-18T05:05:21;27.87;;;17.77;;
73733;SDS011;62039;50.000;9.064;2022-12-18T05:07:49;33.63;;;19.63;;
73733;SDS011;62039;50.000;9.064;2022-12-18T05:10:16;30.43;;;18.23;;
73733;SDS011;62039;50.000;9.064;2022-12-18T05:12:42;33.43;;;18.77;;
73733;SDS011;62039;50.000;9.064;2022-12-18T05:15:09;29.67;;;17.97;;
73733;SDS011;62039;50.000;9.064;2022-12-18T05:17:36;28.03;;;17.83;;
73733;SDS011;62039;50.000;9.064;2022-12-18T05:20:02;29.43;;;18.83;;
73733;SDS011;62039;50.000;9.064;2022-12-18T05:22:29;27.27;;;17.23;;
73733;SDS011;62039;50.000;9.064;2022-12-18T05:24:57;28.90;;;17.53;;
73733;SDS011;62039;50.000;9.064;2022-12-18T05:27:24;32.13;;;17.73;;
73733;SDS011;62039;50.000;9.064;2022-12-18T05:29:50;23.80;;;15.53;;
73733;SDS011;62039;50.000;9.064;2022-12-18T05:32:17;25.57;;;16.97;;
73733;SDS011;62039;50.000;9.064;2022-12-18T05:34:43;26.17;;;16.33;;
73733;SDS011;62039;50.000;9.064;2022-12-18T05:37:10;26.47;;;16.60;;
73733;SDS011;62039;50.000;9.064;2022-12-18T05:39:36;26.03;;;15.73;;
73733;SDS011;62039;50.000;9.064;2022-12-18T05:42:04;30.33;;;17.33;;
73733;SDS011;62039;50.000;9.064;2022-12-18T05:44:31;29.13;;;17.13;;
73733;SDS011;62039;50.000;9.064;2022-12-18T05:46:57;27.50;;;16.40;;
73733;SDS011;62039;50.000;9.064;2022-12-18T05:49:24;28.73;;;17.00;;
73733;SDS011;62039;50.000;9.064;2022-12-18T05:51:50;29.03;;;17.27;;
73733;SDS011;62039;50.000;9.064;2022-12-18T05:54:17;32.60;;;17.80;;
73733;SDS011;62039;50.000;9.064;2022-12-18T05:56:43;28.43;;;17.67;;
73733;SDS011;62039;50.000;9.064;2022-12-18T05:59:15;37.23;;;20.77;;
73733;SDS011;62039;50.000;9.064;2022-12-18T06:01:42;29.87;;;17.83;;
73733;SDS011;62039;50.000;9.064;2022-12-18T06:04:08;31.90;;;18.63;;
73733;SDS011;62039;50.000;9.064;2022-12-18T06:06:35;31.23;;;19.57;;
73733;SDS011;62039;50.000;9.064;2022-12-18T06:09:02;32.20;;;20.07;;
73733;SDS011;62039;50.000;9.064;2022-12-18T06:11:29;30.23;;;18.67;;
73733;SDS011;62039;50.000;9.064;2022-12-18T06:13:55;30.50;;;20.47;;
73733;SDS011;62039;50.000;9.064;2022-12-18T06:16:26;30.17;;;19.00;;
73733;SDS011;62039;50.000;9.064;2022-12-18T06:18:52;29.13;;;18.07;;
73733;SDS011;62039;50.000;9.064;2022-12-18T06:21:19;28.03;;;16.30;;
73733;SDS011;62039;50.000;9.064;2022-12-18T06:23:46;22.80;;;15.13;;
73733;SDS011;62039;50.000;9.064;2022-12-18T06:26:12;27.27;;;15.70;;
73733;SDS011;62039;50.000;9.064;2022-12-18T06:28:39;29.00;;;16.40;;
73733;SDS011;62039;50.000;9.064;2022-12-18T06:31:07;27.13;;;15.57;;
73733;SDS011;62039;50.000;9.064;2022-12-18T06:33:35;30.27;;;16.13;;
73733;SDS011;62039;50.000;9.064;2022-12-18T06:36:03;27.37;;;15.47;;
73733;SDS011;62039;50.000;9.064;2022-12-18T06:38:32;29.87;;;16.53;;
73733;SDS011;62039;50.000;9.064;2022-12-18T06:40:59;28.83;;;15.80;;
73733;SDS011;62039;50.000;9.064;2022-12-18T06:43:26;30.70;;;16.40;;
73733;SDS011;62039;50.000;9.064;2022-12-18T06:45:57;28.40;;;15.80;;
73733;SDS011;62039;50.000;9.064;2022-12-18T06:48:25;29.70;;;15.10;;
73733;SDS011;62039;50.000;9.064;2022-12-18T06:50:52;25.47;;;14.10;;
73733;SDS011;62039;50.000;9.064;2022-12-18T06:53:19;29.60;;;14.60;;
73733;SDS011;62039;50.000;9.064;2022-12-18T06:55:46;25.37;;;15.17;;
73733;SDS011;62039;50.000;9.064;2022-12-18T06:58:12;27.70;;;15.73;;
73733;SDS011;62039;50.000;9.064;2022-12-18T07:00:39;28.47;;;16.03;;
73733;SDS011;62039;50.000;9.064;2022-12-18T07:03:05;29.50;;;15.93;;
73733;SDS011;62039;50.000;9.064;2022-12-18T07:05:32;26.27;;;13.97;;
73733;SDS011;62039;50.000;9.064;2022-12-18T07:08:00;27.37;;;15.30;;
73733;SDS011;62039;50.000;9.064;2022-12-18T07:10:26;27.47;;;15.27;;
73733;SDS011;62039;50.000;9.064;2022-12-18T07:12:53;29.07;;;16.20;;
73733;SDS011;62039;50.000;9.064;2022-12-18T07:15:19;28.47;;;17.80;;
73733;SDS011;62039;50.000;9.064;2022-12-18T07:17:46;68.33;;;33.27;;
73733;SDS011;62039;50.000;9.064;2022-12-18T07:20:12;69.87;;;34.10;;
73733;SDS011;62039;50.000;9.064;2022-12-18T07:22:39;54.80;;;28.93;;
73733;SDS011;62039;50.000;9.064;2022-12-18T07:25:07;42.87;;;23.03;;
73733;SDS011;62039;50.000;9.064;2022-12-18T07:27:34;39.47;;;20.90;;
73733;SDS011;62039;50.000;9.064;2022-12-18T07:30:01;34.43;;;19.37;;
73733;SDS011;62039;50.000;9.064;2022-12-18T07:32:27;29.60;;;17.60;;
73733;SDS011;62039;50.000;9.064;2022-12-18T07:34:54;28.10;;;16.20;;
73733;SDS011;62039;50.000;9.064;2022-12-18T07:37:20;32.47;;;17.53;;
73733;SDS011;62039;50.000;9.064;2022-12-18T07:39:47;28.43;;;15.13;;
73733;SDS011;62039;50.000;9.064;2022-12-18T07:42:16;27.10;;;16.00;;
73733;SDS011;62039;50.000;9.064;2022-12-18T07:44:43;31.17;;;18.57;;
73733;SDS011;62039;50.000;9.064;2022-12-18T07:47:09;31.53;;;17.67;;
73733;SDS011;62039;50.000;9.064;2022-12-18T07:49:37;45.50;;;26.37;;
73733;SDS011;62039;50.000;9.064;2022-12-18T07:52:04;42.10;;;24.67;;
73733;SDS011;62039;50.000;9.064;2022-12-18T07:54:30;48.30;;;27.70;;
73733;SDS011;62039;50.000;9.064;2022-12-18T07:56:57;31.93;;;18.17;;
73733;SDS011;62039;50.000;9.064;2022-12-18T07:59:25;28.00;;;16.63;;
73733;SDS011;62039;50.000;9.064;2022-12-18T08:01:51;23.57;;;14.80;;
73733;SDS011;62039;50.000;9.064;2022-12-18T08:04:18;24.07;;;15.30;;
73733;SDS011;62039;50.000;9.064;2022-12-18T08:06:45;27.90;;;16.00;;
73733;SDS011;62039;50.000;9.064;2022-12-18T08:09:13;30.63;;;16.53;;
73733;SDS011;62039;50.000;9.064;2022-12-18T08:11:40;28.83;;;15.90;;
73733;SDS011;62039;50.000;9.064;2022-12-18T08:14:06;23.40;;;14.63;;
73733;SDS011;62039;50.000;9.064;2022-12-18T08:16:35;25.07;;;15.30;;
73733;SDS011;62039;50.000;9.064;2022-12-18T08:19:01;25.33;;;15.93;;
73733;SDS011;62039;50.000;9.064;2022-12-18T08:21:29;27.20;;;15.50;;
73733;SDS011;62039;50.000;9.064;2022-12-18T08:23:57;26.60;;;16.60;;
73733;SDS011;62039;50.000;9.064;2022-12-18T08:26:25;27.43;;;16.83;;
73733;SDS011;62039;50.000;9.064;2022-12-18T08:28:53;30.80;;;19.43;;
73733;SDS011;62039;50.000;9.064;2022-12-18T08:31:20;31.63;;;19.60;;
73733;SDS011;62039;50.000;9.064;2022-12-18T08:33:50;31.93;;;20.63;;
73733;SDS011;62039;50.000;9.064;2022-12-18T08:36:18;35.53;;;21.30;;
73733;SDS011;62039;50.000;9.064;2022-12-18T08:38:45;36.27;;;23.27;;
73733;SDS011;62039;50.000;9.064;2022-12-18T08:41:13;33.10;;;21.33;;
73733;SDS011;62039;50.000;9.064;2022-12-18T08:43:40;35.87;;;22.27;;
73733;SDS011;62039;50.000;9.064;2022-12-18T08:46:07;36.80;;;22.83;;
73733;SDS011;62039;50.000;9.064;2022-12-18T08:48:34;46.87;;;26.10;;
73733;SDS011;62039;50.000;9.064;2022-12-18T08:51:02;63.67;;;33.60;;
73733;SDS011;62039;50.000;9.064;2022-12-18T08:53:29;59.27;;;32.40;;
73733;SDS011;62039;50.000;9.064;2022-12-18T08:56:00;50.67;;;30.27;;
73733;SDS011;62039;50.000;9.064;2022-12-18T08:58:27;53.67;;;29.87;;
73733;SDS011;62039;50.000;9.064;2022-12-18T09:00:53;48.63;;;28.03;;
73733;SDS011;62039;50.000;9.064;2022-12-18T09:03:20;44.40;;;26.23;;
73733;SDS011;62039;50.000;9.064;2022-12-18T09:05:47;35.73;;;22.30;;
73733;SDS011;62039;50.000;9.064;2022-12-18T09:08:15;36.50;;;21.97;;
73733;SDS011;62039;50.000;9.064;2022-12-18T09:10:41;37.47;;;20.30;;
73733;SDS011;62039;50.000;9.064;2022-12-18T09:13:09;40.43;;;23.53;;
73733;SDS011;62039;50.000;9.064;2022-12-18T09:15:40;38.20;;;23.03;;
73733;SDS011;62039;50.000;9.064;2022-12-18T09:18:07;40.00;;;24.93;;
73733;SDS011;62039;50.000;9.064;2022-12-18T09:20:33;36.77;;;21.03;;
73733;SDS011;62039;50.000;9.064;2022-12-18T09:23:00;39.70;;;23.90;;
73733;SDS011;62039;50.000;9.064;2022-12-18T09:25:28;33.07;;;21.07;;
73733;SDS011;62039;50.000;9.064;2022-12-18T09:27:54;35.07;;;19.37;;
73733;SDS011;62039;50.000;9.064;2022-12-18T09:30:21;41.57;;;23.03;;
73733;SDS011;62039;50.000;9.064;2022-12-18T09:32:48;44.27;;;22.60;;
73733;SDS011;62039;50.000;9.064;2022-12-18T09:35:14;41.03;;;22.57;;
73733;SDS011;62039;50.000;9.064;2022-12-18T09:37:41;41.30;;;22.20;;
73733;SDS011;62039;50.000;9.064;2022-12-18T09:40:12;47.53;;;25.40;;
73733;SDS011;62039;50.000;9.064;2022-12-18T09:42:41;43.60;;;24.40;;
73733;SDS011;62039;50.000;9.064;2022-12-18T09:45:13;39.50;;;21.77;;
73733;SDS011;62039;50.000;9.064;2022-12-18T09:47:41;46.10;;;26.80;;
73733;SDS011;62039;50.000;9.064;2022-12-18T09:50:15;43.77;;;24.63;;
73733;SDS011;62039;50.000;9.064;2022-12-18T09:52:49;37.27;;;19.73;;
73733;SDS011;62039;50.000;9.064;2022-12-18T09:55:21;39.43;;;21.40;;
73733;SDS011;62039;50.000;9.064;2022-12-18T09:57:53;40.03;;;23.57;;
73733;SDS011;62039;50.000;9.064;2022-12-18T10:00:23;43.10;;;24.40;;
73733;SDS011;62039;50.000;9.064;2022-12-18T10:02:50;40.77;;;23.60;;
73733;SDS011;62039;50.000;9.064;2022-12-18T10:05:20;36.87;;;20.60;;
73733;SDS011;62039;50.000;9.064;2022-12-18T10:08:01;33.53;;;19.03;;
73733;SDS011;62039;50.000;9.064;2022-12-18T10:10:33;40.97;;;23.40;;
73733;SDS011;62039;50.000;9.064;2022-12-18T10:13:11;37.97;;;21.60;;
73733;SDS011;62039;50.000;9.064;2022-12-18T10:15:48;32.23;;;18.37;;
73733;SDS011;62039;50.000;9.064;2022-12-18T10:18:25;31.80;;;19.03;;
73733;SDS011;62039;50.000;9.064;2022-12-18T10:20:59;29.23;;;16.80;;
73733;SDS011;62039;50.000;9.064;2022-12-18T10:23:33;26.73;;;16.10;;
73733;SDS011;62039;50.000;9.064;2022-12-18T10:26:13;27.60;;;16.80;;
73733;SDS011;62039;50.000;9.064;2022-12-18T10:28:41;25.07;;;15.27;;
73733;SDS011;62039;50.000;9.064;2022-12-18T10:31:12;25.67;;;16.27;;
73733;SDS011;62039;50.000;9.064;2022-12-18T10:33:42;21.83;;;13.63;;
73733;SDS011;62039;50.000;9.064;2022-12-18T10:36:09;22.97;;;13.77;;
73733;SDS011;62039;50.000;9.064;2022-12-18T10:38:35;24.27;;;14.63;;
73733;SDS011;62039;50.000;9.064;2022-12-18T10:41:03;25.17;;;14.53;;
73733;SDS011;62039;50.000;9.064;2022-12-18T10:43:32;28.13;;;17.43;;
73733;SDS011;62039;50.000;9.064;2022-12-18T10:46:15;27.63;;;16.07;;
73733;SDS011;62039;50.000;9.064;2022-12-18T10:48:50;31.57;;;16.47;;
73733;SDS011;62039;50.000;9.064;2022-12-18T10:51:20;25.50;;;14.83;;
73733;SDS011;62039;50.000;9.064;2022-12-18T10:53:51;25.90;;;15.07;;
73733;SDS011;62039;50.000;9.064;2022-12-18T10:56:20;24.90;;;15.27;;
73733;SDS011;62039;50.000;9.064;2022-12-18T10:58:54;25.07;;;14.67;;
73733;SDS011;62039;50.000;9.064;2022-12-18T11:01:24;28.20;;;15.77;;
73733;SDS011;62039;50.000;9.064;2022-12-18T11:03:58;26.80;;;16.13;;
73733;SDS011;62039;50.000;9.064;2022-12-18T11:06:28;27.20;;;15.87;;
73733;SDS011;62039;50.000;9.064;2022-12-18T11:08:58;28.47;;;16.80;;
73733;SDS011;62039;50.000;9.064;2022-12-18T11:11:25;30.03;;;16.60;;
73733;SDS011;62039;50.000;9.064;2022-12-18T11:13:58;25.53;;;15.20;;
73733;SDS011;62039;50.000;9.064;2022-12-18T11:16:29;26.93;;;15.67;;
73733;SDS011;62039;50.000;9.064;2022-12-18T11:19:13;24.90;;;14.13;;
73733;SDS011;62039;50.000;9.064;2022-12-18T11:21:46;24.60;;;14.57;;
73733;SDS011;62039;50.000;9.064;2022-12-18T11:24:18;24.50;;;13.93;;
73733;SDS011;62039;50.000;9.064;2022-12-18T11:26:47;26.17;;;15.90;;
73733;SDS011;62039;50.000;9.064;2022-12-18T11:29:15;27.70;;;16.43;;
73733;SDS011;62039;50.000;9.064;2022-12-18T11:31:45;24.67;;;15.27;;
73733;SDS011;62039;50.000;9.064;2022-12-18T11:34:12;30.87;;;17.67;;
73733;SDS011;62039;50.000;9.064;2022-12-18T11:36:55;27.97;;;15.90;;
73733;SDS011;62039;50.000;9.064;2022-12-18T11:39:24;30.03;;;15.20;;
73733;SDS011;62039;50.000;9.064;2022-12-18T11:41:58;31.20;;;17.53;;
73733;SDS011;62039;50.000;9.064;2022-12-18T11:44:31;32.67;;;18.30;;
73733;SDS011;62039;50.000;9.064;2022-12-18T11:47:05;26.50;;;15.50;;
73733;SDS011;62039;50.000;9.064;2022-12-18T11:49:38;28.07;;;17.33;;
73733;SDS011;62039;50.000;9.064;2022-12-18T11:52:09;31.27;;;17.43;;
73733;SDS011;62039;50.000;9.064;2022-12-18T11:54:40;28.83;;;16.53;;
73733;SDS011;62039;50.000;9.064;2022-12-18T11:57:07;28.43;;;16.73;;
73733;SDS011;62039;50.000;9.064;2022-12-18T11:59:43;33.97;;;17.50;;
73733;SDS011;62039;50.000;9.064;2022-12-18T12:02:20;27.27;;;16.13;;
73733;SDS011;62039;50.000;9.064;2022-12-18T12:05:00;24.83;;;13.93;;
73733;SDS011;62039;50.000;9.064;2022-12-18T12:07:38;28.23;;;17.13;;
73733;SDS011;62039;50.000;9.064;2022-12-18T12:10:18;28.17;;;15.23;;
73733;SDS011;62039;50.000;9.064;2022-12-18T12:13:00;28.27;;;15.87;;
73733;SDS011;62039;50.000;9.064;2022-12-18T12:15:40;35.27;;;19.20;;
73733;SDS011;62039;50.000;9.064;2022-12-18T12:18:19;29.17;;;17.43;;
73733;SDS011;62039;50.000;9.064;2022-12-18T12:20:56;26.40;;;15.43;;
73733;SDS011;62039;50.000;9.064;2022-12-18T12:23:30;29.57;;;16.93;;
73733;SDS011;62039;50.000;9.064;2022-12-18T12:26:08;33.30;;;18.77;;
73733;SDS011;62039;50.000;9.064;2022-12-18T12:28:59;27.50;;;16.07;;
73733;SDS011;62039;50.000;9.064;2022-12-18T12:31:37;30.17;;;17.97;;
73733;SDS011;62039;50.000;9.064;2022-12-18T12:34:19;26.53;;;16.80;;
73733;SDS011;62039;50.000;9.064;2022-12-18T12:36:52;30.00;;;18.43;;
73733;SDS011;62039;50.000;9.064;2022-12-18T12:39:27;25.87;;;15.90;;
73733;SDS011;62039;50.000;9.064;2022-12-18T12:41:56;31.57;;;17.70;;
73733;SDS011;62039;50.000;9.064;2022-12-18T12:44:24;26.87;;;16.87;;
73733;SDS011;62039;50.000;9.064;2022-12-18T12:46:55;31.03;;;16.73;;
73733;SDS011;62039;50.000;9.064;2022-12-18T12:49:27;34.20;;;20.57;;
73733;SDS011;62039;50.000;9.064;2022-12-18T12:52:06;30.57;;;16.80;;
73733;SDS011;62039;50.000;9.064;2022-12-18T12:54:37;33.03;;;19.33;;
73733;SDS011;62039;50.000;9.064;2022-12-18T12:57:05;28.90;;;16.73;;
73733;SDS011;62039;50.000;9.064;2022-12-18T12:59:40;30.30;;;17.17;;
73733;SDS011;62039;50.000;9.064;2022-12-18T13:02:17;28.23;;;16.53;;
73733;SDS011;62039;50.000;9.064;2022-12-18T13:04:52;30.60;;;18.40;;
73733;SDS011;62039;50.000;9.064;2022-12-18T13:07:24;28.33;;;17.47;;
73733;SDS011;62039;50.000;9.064;2022-12-18T13:10:19;28.10;;;17.03;;
73733;SDS011;62039;50.000;9.064;2022-12-18T13:12:58;29.47;;;17.53;;
73733;SDS011;62039;50.000;9.064;2022-12-18T13:15:31;27.57;;;15.90;;
73733;SDS011;62039;50.000;9.064;2022-12-18T13:18:06;36.80;;;23.07;;
73733;SDS011;62039;50.000;9.064;2022-12-18T13:20:41;29.53;;;18.17;;
73733;SDS011;62039;50.000;9.064;2022-12-18T13:23:20;26.10;;;16.03;;
73733;SDS011;62039;50.000;9.064;2022-12-18T13:25:53;29.63;;;17.47;;
73733;SDS011;62039;50.000;9.064;2022-12-18T13:28:21;28.97;;;17.63;;
73733;SDS011;62039;50.000;9.064;2022-12-18T13:30:52;27.07;;;16.50;;
73733;SDS011;62039;50.000;9.064;2022-12-18T13:36:37;24.03;;;14.10;;
73733;SDS011;62039;50.000;9.064;2022-12-18T13:48:04;20.63;;;13.03;;
73733;SDS011;62039;50.000;9.064;2022-12-18T13:50:39;30.10;;;17.20;;
73733;SDS011;62039;50.000;9.064;2022-12-18T13:53:11;28.77;;;16.47;;
73733;SDS011;62039;50.000;9.064;2022-12-18T13:55:47;29.20;;;16.53;;
73733;SDS011;62039;50.000;9.064;2022-12-18T13:58:15;26.87;;;17.33;;
73733;SDS011;62039;50.000;9.064;2022-12-18T14:00:43;32.27;;;17.87;;
73733;SDS011;62039;50.000;9.064;2022-12-18T14:03:18;28.53;;;16.10;;
73733;SDS011;62039;50.000;9.064;2022-12-18T14:05:52;29.97;;;18.23;;
73733;SDS011;62039;50.000;9.064;2022-12-18T14:08:22;28.70;;;17.17;;
73733;SDS011;62039;50.000;9.064;2022-12-18T14:10:49;28.43;;;15.87;;
73733;SDS011;62039;50.000;9.064;2022-12-18T14:13:18;30.80;;;18.37;;
73733;SDS011;62039;50.000;9.064;2022-12-18T14:15:49;28.27;;;17.07;;
73733;SDS011;62039;50.000;9.064;2022-12-18T14:18:19;30.57;;;17.73;;
73733;SDS011;62039;50.000;9.064;2022-12-18T14:20:48;26.83;;;16.50;;
73733;SDS011;62039;50.000;9.064;2022-12-18T14:23:27;26.77;;;16.70;;
73733;SDS011;62039;50.000;9.064;2022-12-18T14:25:55;28.63;;;15.63;;
73733;SDS011;62039;50.000;9.064;2022-12-18T14:28:30;23.57;;;15.73;;
73733;SDS011;62039;50.000;9.064;2022-12-18T14:30:57;33.53;;;18.90;;
73733;SDS011;62039;50.000;9.064;2022-12-18T14:33:24;29.57;;;17.00;;
73733;SDS011;62039;50.000;9.064;2022-12-18T14:35:53;27.67;;;16.73;;
73733;SDS011;62039;50.000;9.064;2022-12-18T14:38:24;29.63;;;17.93;;
73733;SDS011;62039;50.000;9.064;2022-12-18T14:40:55;28.50;;;17.57;;
73733;SDS011;62039;50.000;9.064;2022-12-18T14:43:22;25.73;;;16.77;;
73733;SDS011;62039;50.000;9.064;2022-12-18T14:45:49;27.30;;;15.97;;
73733;SDS011;62039;50.000;9.064;2022-12-18T14:48:18;26.40;;;15.17;;